createdAt,value
2018-05-06T00:00:03.497Z,5.54
2018-05-06T00:01:03.483Z,5.46
2018-05-06T00:02:03.216Z,5.45
2018-05-06T00:03:03.195Z,5.49
2018-05-06T00:04:03.187Z,5.41
2018-05-06T00:05:03.434Z,5.45
2018-05-06T00:06:03.169Z,5.41
2018-05-06T00:07:03.407Z,5.44
2018-05-06T00:08:03.134Z,5.41
2018-05-06T00:09:03.383Z,5.41
2018-05-06T00:10:03.364Z,5.42
2018-05-06T00:11:03.093Z,5.45
2018-05-06T00:12:03.340Z,5.45
2018-05-06T00:13:03.367Z,5.44
2018-05-06T00:14:03.055Z,5.42
2018-05-06T00:15:03.041Z,5.41
2018-05-06T00:16:03.026Z,5.41
2018-05-06T00:17:03.278Z,5.37
2018-05-06T00:18:03.262Z,5.37
2018-05-06T00:19:03.244Z,5.37
2018-05-06T00:20:03.231Z,5.41
2018-05-06T00:21:03.216Z,5.41
2018-05-06T00:22:03.208Z,5.34
2018-05-06T00:23:03.193Z,5.36
2018-05-06T00:24:03.175Z,5.31
2018-05-06T00:25:03.168Z,5.36
2018-05-06T00:26:03.156Z,5.33
2018-05-06T00:27:02.880Z,5.2
2018-05-06T00:28:02.866Z,5.21
2018-05-06T00:29:03.119Z,5.23
2018-05-06T00:30:03.099Z,5.33
2018-05-06T00:31:03.082Z,5.23
2018-05-06T00:32:03.073Z,5.23
2018-05-06T00:33:02.800Z,5.2
2018-05-06T00:34:03.127Z,5.21
2018-05-06T00:35:03.030Z,5.16
2018-05-06T00:36:02.758Z,5.15
2018-05-06T00:37:03.080Z,5.15
2018-05-06T00:38:02.988Z,5.08
2018-05-06T00:39:02.718Z,5.02
2018-05-06T00:40:02.704Z,5.05
2018-05-06T00:41:02.437Z,5.06
2018-05-06T00:42:02.938Z,4.97
2018-05-06T00:43:02.921Z,5.08
2018-05-06T00:44:02.652Z,5
2018-05-06T00:45:02.639Z,4.94
2018-05-06T00:46:02.370Z,5.03
2018-05-06T00:47:02.612Z,5.05
2018-05-06T00:48:02.854Z,4.97
2018-05-06T00:49:02.842Z,4.95
2018-05-06T00:50:02.831Z,5.03
2018-05-06T00:51:02.563Z,5.08
2018-05-06T00:52:02.541Z,5.05
2018-05-06T00:53:02.533Z,5.02
2018-05-06T00:54:02.769Z,5
2018-05-06T00:55:02.503Z,5
2018-05-06T00:56:02.491Z,5
2018-05-06T00:57:02.735Z,5.02
2018-05-06T00:58:02.724Z,5.03
2018-05-06T00:59:02.706Z,4.95
2018-05-06T01:00:02.694Z,5.03
2018-05-06T01:01:02.428Z,5.02
2018-05-06T01:02:02.673Z,4.92
2018-05-06T01:03:02.401Z,4.95
2018-05-06T01:04:02.640Z,4.97
2018-05-06T01:05:02.624Z,4.92
2018-05-06T01:06:02.620Z,4.91
2018-05-06T01:07:02.598Z,4.88
2018-05-06T01:08:02.588Z,4.83
2018-05-06T01:09:02.313Z,4.83
2018-05-06T01:10:02.300Z,4.79
2018-05-06T01:11:02.543Z,4.71
2018-05-06T01:12:02.530Z,4.74
2018-05-06T01:13:02.517Z,4.71
2018-05-06T01:14:02.506Z,4.76
2018-05-06T01:15:02.488Z,4.76
2018-05-06T01:16:02.479Z,4.71
2018-05-06T01:17:02.201Z,4.68
2018-05-06T01:18:02.447Z,4.74
2018-05-06T01:19:02.433Z,4.72
2018-05-06T01:20:02.425Z,4.74
2018-05-06T01:21:02.152Z,4.69
2018-05-06T01:22:02.394Z,4.68
2018-05-06T01:23:02.121Z,4.65
2018-05-06T01:24:01.849Z,4.68
2018-05-06T01:25:02.093Z,4.69
2018-05-06T01:26:01.823Z,4.65
2018-05-06T01:27:02.321Z,4.75
2018-05-06T01:28:02.054Z,4.66
2018-05-06T01:29:02.298Z,4.66
2018-05-06T01:30:02.025Z,4.64
2018-05-06T01:31:02.273Z,4.65
2018-05-06T01:32:02.253Z,4.65
2018-05-06T01:33:02.252Z,4.42
2018-05-06T01:34:01.969Z,4.53
2018-05-06T01:35:02.224Z,4.44
2018-05-06T01:36:01.939Z,4.54
2018-05-06T01:37:02.185Z,4.48
2018-05-06T01:38:02.167Z,4.4
2018-05-06T01:39:01.901Z,4.35
2018-05-06T01:40:02.144Z,4.32
2018-05-06T01:41:01.872Z,4.29
2018-05-06T01:42:01.602Z,4.36
2018-05-06T01:43:01.842Z,4.32
2018-05-06T01:44:01.577Z,4.3
2018-05-06T01:45:02.083Z,4.3
2018-05-06T01:46:02.058Z,4.26
2018-05-06T01:47:02.047Z,4.26
2018-05-06T01:48:01.783Z,4.18
2018-05-06T01:49:02.019Z,4.15
2018-05-06T01:50:02.002Z,4.08
2018-05-06T01:51:01.740Z,4.1
2018-05-06T01:52:01.714Z,4.02
2018-05-06T01:53:01.703Z,4.07
2018-05-06T01:54:01.696Z,4.03
2018-05-06T01:55:01.675Z,3.99
2018-05-06T01:56:01.920Z,3.97
2018-05-06T01:57:01.391Z,3.99
2018-05-06T01:58:01.635Z,4
2018-05-06T01:59:01.880Z,3.94
2018-05-06T02:00:01.606Z,3.86
2018-05-06T02:01:01.856Z,3.94
2018-05-06T02:02:01.578Z,3.94
2018-05-06T02:03:01.562Z,4.03
2018-05-06T02:04:01.805Z,3.94
2018-05-06T02:05:01.792Z,4
2018-05-06T02:06:01.779Z,3.92
2018-05-06T02:07:01.506Z,4.03
2018-05-06T02:08:01.755Z,3.92
2018-05-06T02:09:01.733Z,3.92
2018-05-06T02:10:01.463Z,3.93
2018-05-06T02:11:01.446Z,3.93
2018-05-06T02:12:01.785Z,3.89
2018-05-06T02:13:01.422Z,3.97
2018-05-06T02:14:01.409Z,3.96
2018-05-06T02:15:01.647Z,3.9
2018-05-06T02:16:01.645Z,3.89
2018-05-06T02:17:01.376Z,3.85
2018-05-06T02:18:01.609Z,3.9
2018-05-06T02:19:01.592Z,3.99
2018-05-06T02:20:01.579Z,3.94
2018-05-06T02:21:01.306Z,3.92
2018-05-06T02:22:01.560Z,3.82
2018-05-06T02:23:01.022Z,3.92
2018-05-06T02:24:01.527Z,3.9
2018-05-06T02:25:01.247Z,3.81
2018-05-06T02:26:01.505Z,3.78
2018-05-06T02:27:01.479Z,3.85
2018-05-06T02:28:01.463Z,3.85
2018-05-06T02:29:01.448Z,3.79
2018-05-06T02:30:00.927Z,3.72
2018-05-06T02:31:01.422Z,3.72
2018-05-06T02:32:01.403Z,3.75
2018-05-06T02:33:01.399Z,3.78
2018-05-06T02:34:01.125Z,3.66
2018-05-06T02:35:01.363Z,3.66
2018-05-06T02:36:01.353Z,3.69
2018-05-06T02:37:01.385Z,3.67
2018-05-06T02:38:01.064Z,3.61
2018-05-06T02:39:01.077Z,3.64
2018-05-06T02:40:01.035Z,3.67
2018-05-06T02:41:01.277Z,3.66
2018-05-06T02:42:01.262Z,3.66
2018-05-06T02:43:01.257Z,3.66
2018-05-06T02:44:01.235Z,3.67
2018-05-06T02:45:01.223Z,3.66
2018-05-06T02:46:01.206Z,3.66
2018-05-06T02:47:00.678Z,3.67
2018-05-06T02:48:00.663Z,3.67
2018-05-06T02:49:00.908Z,3.67
2018-05-06T02:50:01.149Z,3.57
2018-05-06T02:51:00.913Z,3.54
2018-05-06T02:52:00.866Z,3.54
2018-05-06T02:53:00.848Z,3.54
2018-05-06T02:54:00.846Z,3.57
2018-05-06T02:55:00.820Z,3.58
2018-05-06T02:56:00.815Z,3.57
2018-05-06T02:57:00.790Z,3.66
2018-05-06T02:58:00.780Z,3.66
2018-05-06T02:59:01.016Z,3.67
2018-05-06T03:00:00.998Z,3.74
2018-05-06T03:01:00.729Z,3.75
2018-05-06T03:02:00.974Z,3.78
2018-05-06T03:03:00.700Z,3.81
2018-05-06T03:04:00.688Z,3.84
2018-05-06T03:05:00.670Z,3.82
2018-05-06T03:06:00.912Z,3.81
2018-05-06T03:07:00.639Z,3.78
2018-05-06T03:08:00.888Z,3.74
2018-05-06T03:09:00.614Z,3.75
2018-05-06T03:10:00.345Z,3.79
2018-05-06T03:11:00.582Z,3.67
2018-05-06T03:12:00.569Z,3.71
2018-05-06T03:13:00.552Z,3.75
2018-05-06T03:14:00.550Z,3.75
2018-05-06T03:15:00.528Z,3.69
2018-05-06T03:16:00.768Z,3.67
2018-05-06T03:17:00.761Z,3.76
2018-05-06T03:18:00.747Z,3.66
2018-05-06T03:19:00.520Z,3.74
2018-05-06T03:20:00.714Z,3.74
2018-05-06T03:21:00.442Z,3.74
2018-05-06T03:22:00.681Z,3.74
2018-05-06T03:23:00.671Z,3.81
2018-05-06T03:24:00.397Z,3.81
2018-05-06T03:25:00.640Z,3.75
2018-05-06T03:26:00.621Z,3.76
2018-05-06T03:27:00.351Z,3.76
2018-05-06T03:28:00.596Z,3.78
2018-05-06T03:29:00.320Z,3.76
2018-05-06T03:30:00.323Z,3.79
2018-05-06T03:31:00.295Z,3.76
2018-05-06T03:32:00.534Z,3.72
2018-05-06T03:33:00.264Z,3.72
2018-05-06T03:34:00.503Z,3.76
2018-05-06T03:35:00.491Z,3.75
2018-05-06T03:36:00.225Z,3.81
2018-05-06T03:36:59.949Z,3.74
2018-05-06T03:38:00.446Z,3.67
2018-05-06T03:39:00.434Z,3.74
2018-05-06T03:40:00.416Z,3.76
2018-05-06T03:41:00.402Z,3.79
2018-05-06T03:42:00.133Z,3.75
2018-05-06T03:43:00.382Z,3.67
2018-05-06T03:43:59.845Z,3.76
2018-05-06T03:45:00.351Z,3.69
2018-05-06T03:46:00.074Z,3.74
2018-05-06T03:47:00.062Z,3.71
2018-05-06T03:48:00.306Z,3.72
2018-05-06T03:49:00.285Z,3.66
2018-05-06T03:50:00.274Z,3.72
2018-05-06T03:51:00.271Z,3.75
2018-05-06T03:51:59.990Z,3.71
2018-05-06T03:53:00.231Z,3.71
2018-05-06T03:54:00.214Z,3.64
2018-05-06T03:55:00.205Z,3.75
2018-05-06T03:55:59.925Z,3.63
2018-05-06T03:56:59.915Z,3.75
2018-05-06T03:57:59.898Z,3.75
2018-05-06T03:59:00.140Z,3.72
2018-05-06T04:00:00.127Z,3.81
2018-05-06T04:01:00.118Z,3.81
2018-05-06T04:01:59.838Z,3.79
2018-05-06T04:02:59.823Z,3.84
2018-05-06T04:03:59.812Z,3.86
2018-05-06T04:04:59.796Z,3.84
2018-05-06T04:06:00.037Z,3.86
2018-05-06T04:06:59.764Z,3.9
2018-05-06T04:08:00.015Z,3.92
2018-05-06T04:08:59.994Z,3.86
2018-05-06T04:10:00.000Z,3.92
2018-05-06T04:10:59.971Z,4
2018-05-06T04:12:00.025Z,4.02
2018-05-06T04:12:59.934Z,3.97
2018-05-06T04:13:59.925Z,4.08
2018-05-06T04:14:59.656Z,4.1
2018-05-06T04:15:59.637Z,4.03
2018-05-06T04:16:59.878Z,4.1
2018-05-06T04:17:59.609Z,4.11
2018-05-06T04:18:59.593Z,4.2
2018-05-06T04:19:59.324Z,4.17
2018-05-06T04:20:59.564Z,4.11
2018-05-06T04:21:59.292Z,4.12
2018-05-06T04:22:59.796Z,4.18
2018-05-06T04:23:59.781Z,4.21
2018-05-06T04:24:59.769Z,4.22
2018-05-06T04:25:59.760Z,4.29
2018-05-06T04:26:59.969Z,4.3
2018-05-06T04:27:59.724Z,4.26
2018-05-06T04:28:59.449Z,4.3
2018-05-06T04:29:59.700Z,4.36
2018-05-06T04:30:59.679Z,4.35
2018-05-06T04:31:59.664Z,4.42
2018-05-06T04:32:59.649Z,4.47
2018-05-06T04:33:59.121Z,4.51
2018-05-06T04:34:59.362Z,4.47
2018-05-06T04:35:59.605Z,4.48
2018-05-06T04:36:59.337Z,4.48
2018-05-06T04:37:59.320Z,4.51
2018-05-06T04:38:59.306Z,4.64
2018-05-06T04:39:59.547Z,4.51
2018-05-06T04:40:59.535Z,4.61
2018-05-06T04:41:59.521Z,4.64
2018-05-06T04:42:59.248Z,4.64
2018-05-06T04:43:59.492Z,4.68
2018-05-06T04:44:59.478Z,4.66
2018-05-06T04:45:59.207Z,4.69
2018-05-06T04:46:59.196Z,4.69
2018-05-06T04:47:58.918Z,4.66
2018-05-06T04:48:59.165Z,4.69
2018-05-06T04:49:58.896Z,4.74
2018-05-06T04:50:59.134Z,4.87
2018-05-06T04:51:59.391Z,4.83
2018-05-06T04:52:59.107Z,4.85
2018-05-06T04:53:59.353Z,4.92
2018-05-06T04:54:59.080Z,4.95
2018-05-06T04:55:59.320Z,4.95
2018-05-06T04:56:59.319Z,4.98
2018-05-06T04:57:59.295Z,5.08
2018-05-06T04:58:58.766Z,5.12
2018-05-06T04:59:59.268Z,5.18
2018-05-06T05:00:58.997Z,5.13
2018-05-06T05:01:59.236Z,5.15
2018-05-06T05:02:58.967Z,5.24
2018-05-06T05:03:59.213Z,5.21
2018-05-06T05:04:59.193Z,5.33
2018-05-06T05:05:59.181Z,5.42
2018-05-06T05:06:58.914Z,5.45
2018-05-06T05:07:59.155Z,5.41
2018-05-06T05:08:58.882Z,5.46
2018-05-06T05:09:58.874Z,5.55
2018-05-06T05:10:59.112Z,5.63
2018-05-06T05:11:59.102Z,5.6
2018-05-06T05:12:59.089Z,5.66
2018-05-06T05:13:58.816Z,5.72
2018-05-06T05:14:58.799Z,5.82
2018-05-06T05:15:59.048Z,5.78
2018-05-06T05:16:59.038Z,5.78
2018-05-06T05:17:59.018Z,5.87
2018-05-06T05:18:59.006Z,5.95
2018-05-06T05:19:59.003Z,5.91
2018-05-06T05:20:59.080Z,6.02
2018-05-06T05:21:58.708Z,5.96
2018-05-06T05:22:58.959Z,6.05
2018-05-06T05:23:58.940Z,6.17
2018-05-06T05:24:58.679Z,6.15
2018-05-06T05:25:58.654Z,6.25
2018-05-06T05:26:58.901Z,6.33
2018-05-06T05:27:58.892Z,6.33
2018-05-06T05:28:58.875Z,6.28
2018-05-06T05:29:58.602Z,6.49
2018-05-06T05:30:58.847Z,6.37
2018-05-06T05:31:58.584Z,6.52
2018-05-06T05:32:58.822Z,6.57
2018-05-06T05:33:58.556Z,6.58
2018-05-06T05:34:58.806Z,6.61
2018-05-06T05:35:58.780Z,6.58
2018-05-06T05:36:58.772Z,6.57
2018-05-06T05:37:58.756Z,6.6
2018-05-06T05:38:58.487Z,6.79
2018-05-06T05:39:58.730Z,6.83
2018-05-06T05:40:58.463Z,6.86
2018-05-06T05:41:58.448Z,6.82
2018-05-06T05:42:58.695Z,6.82
2018-05-06T05:43:58.681Z,7
2018-05-06T05:44:58.667Z,6.97
2018-05-06T05:45:58.403Z,7.08
2018-05-06T05:46:58.644Z,7.03
2018-05-06T05:47:58.902Z,7.15
2018-05-06T05:48:58.359Z,7.11
2018-05-06T05:49:58.361Z,7.16
2018-05-06T05:50:58.335Z,7.21
2018-05-06T05:51:58.581Z,7.21
2018-05-06T05:52:58.569Z,7.37
2018-05-06T05:53:58.566Z,7.44
2018-05-06T05:54:58.560Z,7.47
2018-05-06T05:55:58.276Z,7.52
2018-05-06T05:56:58.519Z,7.68
2018-05-06T05:57:58.249Z,7.78
2018-05-06T05:58:58.239Z,7.8
2018-05-06T05:59:58.229Z,7.92
2018-05-06T06:00:58.213Z,7.95
2018-05-06T06:01:58.462Z,7.99
2018-05-06T06:02:58.198Z,7.91
2018-05-06T06:03:57.921Z,8.04
2018-05-06T06:04:58.424Z,8.16
2018-05-06T06:05:58.411Z,8.21
2018-05-06T06:06:58.397Z,8.35
2018-05-06T06:07:58.386Z,8.46
2018-05-06T06:08:58.120Z,8.49
2018-05-06T06:09:58.106Z,8.71
2018-05-06T06:10:58.097Z,8.74
2018-05-06T06:11:58.415Z,8.79
2018-05-06T06:12:58.337Z,9
2018-05-06T06:13:58.316Z,8.98
2018-05-06T06:14:58.048Z,9.01
2018-05-06T06:15:58.293Z,9.04
2018-05-06T06:16:58.284Z,9.01
2018-05-06T06:17:58.017Z,9.05
2018-05-06T06:18:58.258Z,9.17
2018-05-06T06:19:57.995Z,9.2
2018-05-06T06:20:58.239Z,9.23
2018-05-06T06:21:58.231Z,9.21
2018-05-06T06:22:57.955Z,9.32
2018-05-06T06:23:58.204Z,9.47
2018-05-06T06:24:58.197Z,9.47
2018-05-06T06:25:58.183Z,9.53
2018-05-06T06:26:58.176Z,9.67
2018-05-06T06:27:58.160Z,9.77
2018-05-06T06:28:57.893Z,10.03
2018-05-06T06:29:58.139Z,10.13
2018-05-06T06:30:57.875Z,10.25
2018-05-06T06:31:58.177Z,10.55
2018-05-06T06:32:58.041Z,10.57
2018-05-06T06:33:57.840Z,10.66
2018-05-06T06:34:58.095Z,10.7
2018-05-06T06:35:58.088Z,10.91
2018-05-06T06:36:57.806Z,11.03
2018-05-06T06:37:58.054Z,11.09
2018-05-06T06:38:57.825Z,11.23
2018-05-06T06:39:58.035Z,11.39
2018-05-06T06:40:57.771Z,11.51
2018-05-06T06:41:57.755Z,11.86
2018-05-06T06:42:58.003Z,12.56
2018-05-06T06:43:57.482Z,13.11
2018-05-06T06:44:57.989Z,13.73
2018-05-06T06:45:57.986Z,14.51
2018-05-06T06:46:57.967Z,15.49
2018-05-06T06:47:57.799Z,16.59
2018-05-06T06:48:57.955Z,17.57
2018-05-06T06:49:57.686Z,18.27
2018-05-06T06:50:57.424Z,18.94
2018-05-06T06:51:57.671Z,19.49
2018-05-06T06:52:57.408Z,19.97
2018-05-06T06:53:57.660Z,20.42
2018-05-06T06:54:57.649Z,20.85
2018-05-06T06:55:57.647Z,21.23
2018-05-06T06:56:57.646Z,21.48
2018-05-06T06:57:57.383Z,21.97
2018-05-06T06:58:57.635Z,22.33
2018-05-06T06:59:57.372Z,22.64
2018-05-06T07:00:57.886Z,23.09
2018-05-06T07:01:57.364Z,23.45
2018-05-06T07:02:57.619Z,23.59
2018-05-06T07:03:57.895Z,23.63
2018-05-06T07:04:57.873Z,23.82
2018-05-06T07:05:57.793Z,24.09
2018-05-06T07:06:57.878Z,24.17
2018-05-06T07:07:57.609Z,24.3
2018-05-06T07:08:57.605Z,24.39
2018-05-06T07:09:57.602Z,24.3
2018-05-06T07:10:57.603Z,24.37
2018-05-06T07:11:57.613Z,24.46
2018-05-06T07:12:57.600Z,24.86
2018-05-06T07:13:57.864Z,25.04
2018-05-06T07:14:57.602Z,25.05
2018-05-06T07:15:57.857Z,25.22
2018-05-06T07:16:57.614Z,25.51
2018-05-06T07:17:57.603Z,25.91
2018-05-06T07:18:57.600Z,25.81
2018-05-06T07:19:57.862Z,26
2018-05-06T07:20:57.612Z,26.01
2018-05-06T07:21:57.347Z,26.11
2018-05-06T07:22:57.608Z,26.19
2018-05-06T07:23:57.351Z,26.12
2018-05-06T07:24:57.957Z,26.27
2018-05-06T07:25:57.872Z,26.3
2018-05-06T07:26:57.610Z,26.35
2018-05-06T07:27:57.874Z,26.15
2018-05-06T07:28:57.616Z,25.97
2018-05-06T07:29:57.754Z,25.82
2018-05-06T07:30:57.620Z,25.74
2018-05-06T07:31:57.879Z,25.76
2018-05-06T07:32:57.625Z,25.57
2018-05-06T07:33:57.367Z,25.38
2018-05-06T07:34:57.626Z,25.2
2018-05-06T07:35:58.040Z,25.19
2018-05-06T07:36:57.896Z,25.33
2018-05-06T07:37:57.890Z,25.26
2018-05-06T07:38:57.634Z,25.32
2018-05-06T07:39:57.896Z,25.27
2018-05-06T07:40:57.645Z,25.23
2018-05-06T07:41:57.894Z,25.29
2018-05-06T07:42:57.636Z,25.52
2018-05-06T07:43:57.899Z,25.76
2018-05-06T07:44:57.649Z,25.84
2018-05-06T07:45:57.896Z,25.57
2018-05-06T07:46:57.644Z,25.34
2018-05-06T07:47:57.641Z,25.11
2018-05-06T07:48:57.689Z,24.54
2018-05-06T07:49:57.386Z,24.11
2018-05-06T07:50:57.644Z,23.74
2018-05-06T07:51:57.902Z,23.35
2018-05-06T07:52:57.639Z,23.01
2018-05-06T07:53:57.914Z,22.63
2018-05-06T07:54:57.900Z,22.48
2018-05-06T07:55:57.902Z,21.96
2018-05-06T07:56:57.648Z,21.56
2018-05-06T07:57:57.642Z,21.11
2018-05-06T07:58:57.745Z,20.61
2018-05-06T07:59:57.911Z,20.04
2018-05-06T08:00:57.380Z,19.68
2018-05-06T08:01:57.889Z,19.27
2018-05-06T08:02:57.635Z,18.97
2018-05-06T08:03:57.779Z,18.69
2018-05-06T08:04:57.890Z,18.5
2018-05-06T08:05:57.629Z,18.35
2018-05-06T08:06:57.884Z,18.27
2018-05-06T08:07:57.877Z,18.06
2018-05-06T08:08:57.620Z,18.1
2018-05-06T08:09:57.620Z,18.01
2018-05-06T08:10:58.092Z,17.88
2018-05-06T08:11:57.880Z,17.79
2018-05-06T08:12:57.624Z,17.5
2018-05-06T08:13:57.617Z,17.49
2018-05-06T08:14:57.606Z,17.35
2018-05-06T08:15:57.601Z,17.36
2018-05-06T08:16:57.613Z,17.3
2018-05-06T08:17:57.598Z,17.31
2018-05-06T08:18:57.597Z,17.27
2018-05-06T08:19:57.850Z,17.25
2018-05-06T08:20:57.652Z,17.2
2018-05-06T08:21:58.007Z,17.39
2018-05-06T08:22:57.841Z,17.45
2018-05-06T08:23:57.580Z,17.5
2018-05-06T08:24:57.578Z,17.57
2018-05-06T08:25:57.570Z,17.55
2018-05-06T08:26:57.830Z,17.58
2018-05-06T08:27:57.566Z,17.6
2018-05-06T08:28:57.827Z,17.74
2018-05-06T08:29:57.301Z,17.73
2018-05-06T08:30:57.553Z,17.81
2018-05-06T08:31:57.560Z,17.76
2018-05-06T08:32:57.810Z,17.79
2018-05-06T08:33:57.285Z,17.6
2018-05-06T08:34:57.800Z,17.69
2018-05-06T08:35:57.800Z,17.69
2018-05-06T08:36:57.531Z,17.73
2018-05-06T08:37:57.528Z,17.74
2018-05-06T08:38:57.524Z,17.74
2018-05-06T08:39:57.528Z,17.77
2018-05-06T08:40:57.774Z,17.83
2018-05-06T08:41:57.514Z,17.87
2018-05-06T08:42:57.777Z,17.88
2018-05-06T08:43:57.508Z,17.87
2018-05-06T08:44:57.767Z,18.01
2018-05-06T08:45:57.907Z,18.08
2018-05-06T08:46:57.506Z,18.11
2018-05-06T08:47:57.749Z,18.17
2018-05-06T08:48:57.752Z,18.17
2018-05-06T08:49:57.498Z,18.17
2018-05-06T08:50:57.754Z,18.19
2018-05-06T08:51:57.220Z,18.19
2018-05-06T08:52:57.220Z,18.14
2018-05-06T08:53:57.215Z,18.16
2018-05-06T08:54:57.471Z,18.16
2018-05-06T08:55:57.208Z,18.2
2018-05-06T08:56:57.726Z,18.05
2018-05-06T08:57:57.464Z,18.06
2018-05-06T08:58:57.720Z,18.17
2018-05-06T08:59:57.707Z,18.2
2018-05-06T09:00:57.713Z,18.21
2018-05-06T09:01:57.706Z,18.21
2018-05-06T09:02:57.445Z,18.2
2018-05-06T09:03:57.441Z,18.26
2018-05-06T09:04:57.435Z,18.34
2018-05-06T09:05:57.693Z,18.29
2018-05-06T09:06:57.426Z,18.44
2018-05-06T09:07:57.680Z,18.47
2018-05-06T09:08:57.681Z,18.53
2018-05-06T09:09:57.675Z,18.6
2018-05-06T09:10:57.668Z,18.69
2018-05-06T09:11:57.416Z,18.74
2018-05-06T09:12:57.668Z,18.75
2018-05-06T09:13:57.145Z,18.68
2018-05-06T09:14:57.405Z,18.71
2018-05-06T09:15:57.397Z,18.6
2018-05-06T09:16:57.649Z,18.68
2018-05-06T09:17:57.655Z,18.6
2018-05-06T09:18:57.646Z,18.53
2018-05-06T09:19:57.513Z,18.51
2018-05-06T09:20:57.643Z,18.56
2018-05-06T09:21:57.378Z,18.51
2018-05-06T09:22:57.635Z,18.63
2018-05-06T09:23:57.372Z,18.66
2018-05-06T09:24:57.368Z,18.57
2018-05-06T09:25:57.627Z,18.57
2018-05-06T09:26:57.361Z,18.61
2018-05-06T09:27:57.099Z,18.6
2018-05-06T09:28:57.615Z,18.61
2018-05-06T09:29:57.609Z,18.68
2018-05-06T09:30:57.346Z,18.75
2018-05-06T09:31:57.346Z,18.72
2018-05-06T09:32:57.343Z,18.71
2018-05-06T09:33:57.336Z,18.56
2018-05-06T09:34:57.603Z,18.61
2018-05-06T09:35:57.333Z,18.68
2018-05-06T09:36:57.586Z,18.71
2018-05-06T09:37:57.584Z,18.72
2018-05-06T09:38:57.581Z,18.76
2018-05-06T09:39:57.322Z,18.78
2018-05-06T09:40:57.316Z,18.63
2018-05-06T09:41:57.318Z,18.51
2018-05-06T09:42:57.573Z,18.47
2018-05-06T09:43:57.566Z,18.47
2018-05-06T09:44:57.564Z,18.54
2018-05-06T09:45:57.557Z,18.53
2018-05-06T09:46:57.295Z,18.53
2018-05-06T09:47:57.079Z,18.57
2018-05-06T09:48:57.031Z,18.59
2018-05-06T09:49:57.284Z,18.69
2018-05-06T09:50:57.281Z,18.68
2018-05-06T09:51:57.541Z,18.66
2018-05-06T09:52:57.536Z,18.74
2018-05-06T09:53:57.616Z,18.74
2018-05-06T09:54:57.280Z,18.63
2018-05-06T09:55:57.266Z,18.78
2018-05-06T09:56:57.263Z,18.79
2018-05-06T09:57:57.519Z,18.82
2018-05-06T09:58:57.512Z,18.81
2018-05-06T09:59:57.257Z,18.78
2018-05-06T10:00:56.993Z,18.65
2018-05-06T10:01:57.253Z,18.72
2018-05-06T10:02:57.249Z,18.76
2018-05-06T10:03:57.240Z,18.72
2018-05-06T10:04:57.313Z,18.75
2018-05-06T10:05:57.238Z,18.71
2018-05-06T10:06:57.489Z,18.75
2018-05-06T10:07:56.970Z,18.79
2018-05-06T10:08:57.480Z,18.79
2018-05-06T10:09:57.483Z,18.75
2018-05-06T10:10:57.475Z,18.63
2018-05-06T10:11:57.473Z,18.63
2018-05-06T10:12:57.213Z,18.78
2018-05-06T10:13:57.210Z,18.74
2018-05-06T10:14:57.214Z,18.72
2018-05-06T10:15:57.297Z,18.65
2018-05-06T10:16:57.201Z,18.63
2018-05-06T10:17:57.455Z,18.53
2018-05-06T10:18:57.448Z,18.5
2018-05-06T10:19:57.190Z,18.51
2018-05-06T10:20:57.441Z,18.53
2018-05-06T10:21:57.451Z,18.5
2018-05-06T10:22:57.435Z,18.71
2018-05-06T10:23:57.435Z,18.61
2018-05-06T10:24:57.460Z,18.66
2018-05-06T10:25:57.171Z,18.66
2018-05-06T10:26:57.167Z,18.65
2018-05-06T10:27:57.164Z,18.65
2018-05-06T10:28:56.903Z,18.68
2018-05-06T10:29:57.158Z,18.71
2018-05-06T10:30:57.418Z,18.76
2018-05-06T10:31:57.409Z,18.89
2018-05-06T10:32:57.492Z,18.93
2018-05-06T10:33:57.151Z,18.91
2018-05-06T10:34:57.151Z,18.99
2018-05-06T10:35:57.136Z,18.89
2018-05-06T10:36:57.390Z,18.79
2018-05-06T10:37:56.874Z,18.75
2018-05-06T10:38:57.386Z,18.78
2018-05-06T10:39:57.382Z,18.82
2018-05-06T10:40:56.865Z,18.76
2018-05-06T10:41:57.124Z,18.82
2018-05-06T10:42:57.116Z,18.81
2018-05-06T10:43:56.869Z,18.79
2018-05-06T10:44:57.113Z,18.93
2018-05-06T10:45:57.129Z,18.97
2018-05-06T10:46:57.109Z,18.91
2018-05-06T10:47:57.102Z,18.94
2018-05-06T10:48:57.151Z,18.91
2018-05-06T10:49:56.837Z,18.86
2018-05-06T10:50:57.669Z,18.76
2018-05-06T10:51:57.090Z,18.76
2018-05-06T10:52:57.342Z,18.72
2018-05-06T10:53:57.337Z,18.81
2018-05-06T10:54:57.079Z,18.89
2018-05-06T10:55:57.332Z,18.87
2018-05-06T10:56:57.328Z,18.96
2018-05-06T10:57:57.282Z,18.99
2018-05-06T10:58:57.074Z,18.89
2018-05-06T10:59:57.316Z,18.81
2018-05-06T11:00:56.803Z,18.81
2018-05-06T11:01:57.054Z,18.91
2018-05-06T11:02:57.307Z,18.89
2018-05-06T11:03:57.064Z,19.07
2018-05-06T11:04:57.303Z,18.99
2018-05-06T11:05:57.052Z,18.99
2018-05-06T11:06:57.297Z,18.94
2018-05-06T11:07:57.303Z,18.75
2018-05-06T11:08:57.290Z,18.71
2018-05-06T11:09:57.030Z,18.75
2018-05-06T11:10:57.284Z,18.74
2018-05-06T11:11:57.024Z,18.89
2018-05-06T11:12:57.022Z,18.94
2018-05-06T11:13:57.025Z,19.06
2018-05-06T11:14:57.014Z,19.02
2018-05-06T11:15:57.270Z,19
2018-05-06T11:16:57.272Z,19.05
2018-05-06T11:17:57.126Z,18.96
2018-05-06T11:18:57.259Z,19.05
2018-05-06T11:19:57.256Z,18.94
2018-05-06T11:20:56.998Z,18.96
2018-05-06T11:21:57.250Z,19.06
2018-05-06T11:22:57.252Z,19
2018-05-06T11:23:56.999Z,18.99
2018-05-06T11:24:56.981Z,18.9
2018-05-06T11:25:57.240Z,18.91
2018-05-06T11:26:56.979Z,18.79
2018-05-06T11:27:57.234Z,18.74
2018-05-06T11:28:57.231Z,18.66
2018-05-06T11:29:57.223Z,18.61
2018-05-06T11:30:57.221Z,18.69
2018-05-06T11:31:56.964Z,18.75
2018-05-06T11:32:57.216Z,18.78
2018-05-06T11:33:57.218Z,18.79
2018-05-06T11:34:56.958Z,18.89
2018-05-06T11:35:56.957Z,18.97
2018-05-06T11:36:56.946Z,18.93
2018-05-06T11:37:57.245Z,18.89
2018-05-06T11:38:57.198Z,18.82
2018-05-06T11:39:56.937Z,18.81
2018-05-06T11:40:57.016Z,18.89
2018-05-06T11:41:57.188Z,18.78
2018-05-06T11:42:57.185Z,18.81
2018-05-06T11:43:56.925Z,18.79
2018-05-06T11:44:57.188Z,18.79
2018-05-06T11:45:57.180Z,18.63
2018-05-06T11:46:56.915Z,18.65
2018-05-06T11:47:57.176Z,18.68
2018-05-06T11:48:57.165Z,18.74
2018-05-06T11:49:57.160Z,18.79
2018-05-06T11:50:57.160Z,18.9
2018-05-06T11:51:57.168Z,18.91
2018-05-06T11:52:56.906Z,19
2018-05-06T11:53:57.156Z,18.91
2018-05-06T11:54:56.897Z,19
2018-05-06T11:55:57.146Z,18.97
2018-05-06T11:56:57.150Z,19.05
2018-05-06T11:57:57.136Z,19.05
2018-05-06T11:58:56.880Z,19.12
2018-05-06T11:59:57.131Z,19.24
2018-05-06T12:00:57.136Z,19.17
2018-05-06T12:01:56.869Z,19.07
2018-05-06T12:02:57.130Z,19.13
2018-05-06T12:03:56.865Z,19.13
2018-05-06T12:04:56.863Z,19.1
2018-05-06T12:05:56.857Z,18.99
2018-05-06T12:06:56.858Z,19.05
2018-05-06T12:07:56.885Z,19.05
2018-05-06T12:08:56.865Z,19.07
2018-05-06T12:09:57.186Z,19.2
2018-05-06T12:10:56.843Z,19.15
2018-05-06T12:11:56.841Z,19.19
2018-05-06T12:12:57.103Z,19.17
2018-05-06T12:13:57.099Z,19.12
2018-05-06T12:14:56.838Z,19.07
2018-05-06T12:15:57.265Z,19.02
2018-05-06T12:16:57.085Z,19.1
2018-05-06T12:17:57.087Z,19.1
2018-05-06T12:18:56.821Z,19.05
2018-05-06T12:19:56.561Z,18.97
2018-05-06T12:20:57.072Z,18.91
2018-05-06T12:21:57.154Z,18.97
2018-05-06T12:22:57.067Z,18.93
2018-05-06T12:23:57.092Z,18.96
2018-05-06T12:24:57.060Z,19.1
2018-05-06T12:25:57.064Z,18.94
2018-05-06T12:26:56.797Z,18.94
2018-05-06T12:27:56.796Z,18.89
2018-05-06T12:28:57.048Z,18.93
2018-05-06T12:29:56.788Z,18.89
2018-05-06T12:30:57.042Z,18.79
2018-05-06T12:31:57.041Z,18.9
2018-05-06T12:32:56.523Z,18.96
2018-05-06T12:33:56.780Z,18.97
2018-05-06T12:34:57.031Z,19.02
2018-05-06T12:35:56.776Z,18.91
2018-05-06T12:36:56.768Z,18.91
2018-05-06T12:37:56.767Z,18.93
2018-05-06T12:38:57.022Z,18.9
2018-05-06T12:39:57.022Z,18.84
2018-05-06T12:40:57.025Z,18.93
2018-05-06T12:41:57.052Z,18.91
2018-05-06T12:42:56.753Z,18.84
2018-05-06T12:43:57.009Z,18.82
2018-05-06T12:44:57.003Z,18.84
2018-05-06T12:45:57.005Z,18.87
2018-05-06T12:46:56.995Z,18.89
2018-05-06T12:47:56.735Z,18.99
2018-05-06T12:48:56.734Z,19.06
2018-05-06T12:49:56.992Z,18.99
2018-05-06T12:50:56.986Z,18.94
2018-05-06T12:51:56.980Z,18.96
2018-05-06T12:52:56.719Z,19
2018-05-06T12:53:56.981Z,18.91
2018-05-06T12:54:56.716Z,18.97
2018-05-06T12:55:56.456Z,18.97
2018-05-06T12:56:56.976Z,19
2018-05-06T12:57:56.968Z,18.93
2018-05-06T12:58:56.961Z,18.96
2018-05-06T12:59:56.959Z,18.94
2018-05-06T13:00:56.698Z,18.94
2018-05-06T13:01:56.694Z,18.94
2018-05-06T13:02:56.952Z,18.9
2018-05-06T13:03:56.690Z,19.07
2018-05-06T13:04:56.947Z,18.96
2018-05-06T13:05:56.431Z,18.99
2018-05-06T13:06:56.425Z,18.96
2018-05-06T13:07:56.940Z,19.12